Time;durP1;ratioP1;P1;durP2;ratioP2;P2;SDS_P1;SDS_P2;PMS_P1;PMS_P2;Temp;Humidity;BMP_temperature;BMP_pressure;BME280_temperature;BME280_humidity;BME280_pressure;Samples;Min_cycle;Max_cycle;Signal;HPM_P1;HPM_P2
2023/04/05 00:00:09;;;;;;;;;;;16.50;55.10;;;;;;10131168;28;96496;-69
2023/04/05 00:05:11;;;;;;;;;;;16.50;55.10;;;;;;10134336;28;94379;-68
2023/04/05 00:10:13;;;;;;;;;;;16.50;55.10;;;;;;10133546;28;93948;-68
2023/04/05 00:15:15;;;;;;;;;;;16.50;55.10;;;;;;10117447;28;96770;-69
2023/04/05 00:20:16;;;;;;;;;;;16.40;54.90;;;;;;10116121;28;93203;-68
2023/04/05 00:25:18;;;;;;;;;;;16.50;55.00;;;;;;10132937;28;93687;-68
2023/04/05 00:30:20;;;;;;;;;;;16.40;54.90;;;;;;10133208;28;93411;-68
2023/04/05 00:35:22;;;;;;;;;;;16.40;54.80;;;;;;10132822;28;93337;-68
2023/04/05 00:40:24;;;;;;;;;;;16.40;54.90;;;;;;10133422;28;94630;-68
2023/04/05 00:45:26;;;;;;;;;;;16.40;54.80;;;;;;10115550;28;93653;-68
2023/04/05 00:50:29;;;;;;;;;;;16.40;54.80;;;;;;10112166;28;96041;-69
2023/04/05 00:55:32;;;;;;;;;;;16.40;54.70;;;;;;10114889;28;94083;-69
2023/04/05 01:00:37;;;;;;;;;;;16.30;54.70;;;;;;10132437;28;93702;-68
2023/04/05 01:05:42;;;;;;;;;;;16.30;54.70;;;;;;10131222;28;93655;-68
2023/04/05 01:10:50;;;;;;;;;;;16.30;54.60;;;;;;10131558;28;93617;-68
2023/04/05 01:15:52;;;;;;;;;;;16.30;54.60;;;;;;10132356;28;93486;-68
2023/04/05 01:20:58;;;;;;;;;;;16.30;54.60;;;;;;10131354;28;93708;-68
2023/04/05 01:26:18;;;;;;;;;;;16.30;54.60;;;;;;10131623;28;93747;-68
2023/04/05 01:31:26;;;;;;;;;;;16.30;54.60;;;;;;10130721;28;94600;-69
2023/04/05 01:36:42;;;;;;;;;;;16.30;54.70;;;;;;10130210;28;94024;-68
2023/04/05 01:41:43;;;;;;;;;;;16.20;54.60;;;;;;10110811;28;96833;-68
2023/04/05 01:46:45;;;;;;;;;;;16.20;54.60;;;;;;10129467;28;94312;-68
2023/04/05 01:51:47;;;;;;;;;;;16.20;54.60;;;;;;10129722;28;93583;-68
2023/04/05 01:56:49;;;;;;;;;;;16.20;54.60;;;;;;10129617;28;93601;-68
2023/04/05 02:01:51;;;;;;;;;;;16.20;54.60;;;;;;10130542;28;93516;-69
2023/04/05 02:06:53;;;;;;;;;;;16.20;54.50;;;;;;10129718;28;93739;-68
2023/04/05 02:11:55;;;;;;;;;;;16.20;54.50;;;;;;10130785;28;96724;-67
2023/04/05 02:16:57;;;;;;;;;;;16.20;54.40;;;;;;10130346;28;93754;-68
2023/04/05 02:21:59;;;;;;;;;;;16.10;54.40;;;;;;10130388;28;92964;-67
2023/04/05 02:27:01;;;;;;;;;;;16.10;54.40;;;;;;10130379;28;92715;-67
2023/04/05 02:32:02;;;;;;;;;;;16.10;54.30;;;;;;10110840;28;96988;-67
2023/04/05 02:37:05;;;;;;;;;;;16.10;54.30;;;;;;10128663;28;93389;-69
2023/04/05 02:42:06;;;;;;;;;;;16.10;54.30;;;;;;10129470;28;93485;-69
2023/04/05 02:47:08;;;;;;;;;;;16.10;54.30;;;;;;10129128;28;94440;-69
2023/04/05 02:52:10;;;;;;;;;;;16.10;54.20;;;;;;10128516;28;93508;-68
2023/04/05 02:57:15;;;;;;;;;;;16.10;54.20;;;;;;10111174;28;114004;-69
2023/04/05 03:02:16;;;;;;;;;;;16.10;54.20;;;;;;10111313;28;93512;-69
2023/04/05 03:07:18;;;;;;;;;;;16.00;54.10;;;;;;10129073;28;92796;-68
2023/04/05 03:12:20;;;;;;;;;;;16.10;54.10;;;;;;10127618;28;94598;-68
2023/04/05 03:17:22;;;;;;;;;;;16.00;54.00;;;;;;10127500;28;93875;-69
2023/04/05 03:22:24;;;;;;;;;;;16.00;54.00;;;;;;10108735;28;95560;-68
2023/04/05 03:27:27;;;;;;;;;;;16.00;53.90;;;;;;10127902;28;93472;-68
2023/04/05 03:32:29;;;;;;;;;;;16.00;54.00;;;;;;10127599;28;93688;-68
2023/04/05 03:37:31;;;;;;;;;;;16.00;54.00;;;;;;10126667;28;93449;-68
2023/04/05 03:42:33;;;;;;;;;;;16.00;53.90;;;;;;10127455;28;93039;-68
2023/04/05 05:05:46;;;;;;;;;;;16.60;53.40;;;;;;10006622;29;92535;-61
2023/04/05 05:10:53;;;;;;;;;;;16.80;52.70;;;;;;10014169;29;93439;-58
2023/04/05 05:15:55;;;;;;;;;;;16.80;52.40;;;;;;10014006;29;94720;-61
2023/04/05 05:20:56;;;;;;;;;;;16.90;52.30;;;;;;10011170;29;95868;-61
2023/04/05 05:25:58;;;;;;;;;;;16.80;52.20;;;;;;10013658;29;93528;-60
2023/04/05 05:31:02;;;;;;;;;;;16.80;52.20;;;;;;10014509;29;97500;-61
2023/04/05 05:36:03;;;;;;;;;;;16.70;52.30;;;;;;10014396;29;93675;-60
2023/04/05 05:41:05;;;;;;;;;;;16.70;52.40;;;;;;9996668;29;93724;-61
2023/04/05 05:46:07;;;;;;;;;;;16.60;52.50;;;;;;10012947;29;93446;-61
2023/04/05 05:51:09;;;;;;;;;;;16.60;52.60;;;;;;10047362;29;94818;-61
2023/04/05 05:56:10;;;;;;;;;;;16.60;52.60;;;;;;10052701;29;93591;-62
2023/04/05 06:01:13;;;;;;;;;;;16.60;52.60;;;;;;10052107;29;93591;-60
2023/04/05 06:06:14;;;;;;;;;;;16.60;52.60;;;;;;10050431;29;94452;-60
2023/04/05 06:11:17;;;;;;;;;;;16.60;52.70;;;;;;10047980;29;96743;-61
2023/04/05 06:16:19;;;;;;;;;;;16.50;53.10;;;;;;10050832;29;93598;-60
2023/04/05 06:21:21;;;;;;;;;;;16.50;53.60;;;;;;10049836;29;94920;-61
2023/04/05 06:26:26;;;;;;;;;;;16.50;53.60;;;;;;10050455;29;94587;-60
2023/04/05 06:31:31;;;;;;;;;;;16.40;53.60;;;;;;10049430;29;93957;-61
2023/04/05 06:36:33;;;;;;;;;;;16.40;53.50;;;;;;10050536;29;94791;-61
2023/04/05 06:41:35;;;;;;;;;;;16.40;53.60;;;;;;10049263;29;93413;-61
2023/04/05 06:46:36;;;;;;;;;;;16.30;53.70;;;;;;10050311;29;93058;-61
2023/04/05 06:51:38;;;;;;;;;;;16.30;53.70;;;;;;10049911;29;94561;-61
2023/04/05 06:56:40;;;;;;;;;;;16.20;53.70;;;;;;10048615;29;94039;-61
2023/04/05 07:01:42;;;;;;;;;;;16.20;53.80;;;;;;10047581;29;95502;-60
2023/04/05 07:06:44;;;;;;;;;;;16.20;53.90;;;;;;10049856;29;94473;-60
2023/04/05 07:11:45;;;;;;;;;;;16.20;53.90;;;;;;10050494;29;94805;-61
2023/04/05 07:16:47;;;;;;;;;;;16.10;53.90;;;;;;10049298;29;93549;-61
2023/04/05 07:21:50;;;;;;;;;;;16.10;54.00;;;;;;10048715;29;93460;-61
2023/04/05 07:26:52;;;;;;;;;;;16.10;54.00;;;;;;10047668;29;93222;-61
2023/04/05 07:31:54;;;;;;;;;;;16.10;54.00;;;;;;10049580;29;93867;-61
2023/04/05 07:36:56;;;;;;;;;;;16.10;54.10;;;;;;10050241;29;93608;-61
2023/04/05 07:41:58;;;;;;;;;;;16.10;54.10;;;;;;10049017;29;93654;-62
2023/04/05 07:46:59;;;;;;;;;;;16.10;54.10;;;;;;10053416;29;93396;-62
2023/04/05 07:52:01;;;;;;;;;;;16.10;54.10;;;;;;10052967;29;95902;-61
2023/04/05 07:57:03;;;;;;;;;;;16.10;54.10;;;;;;10054120;29;93501;-61
2023/04/05 08:02:05;;;;;;;;;;;16.10;54.10;;;;;;10054459;29;93470;-61
2023/04/05 08:07:15;;;;;;;;;;;16.10;54.10;;;;;;10053100;29;93485;-62
2023/04/05 08:12:17;;;;;;;;;;;16.10;54.10;;;;;;10054201;29;93853;-61
2023/04/05 08:17:19;;;;;;;;;;;16.10;54.10;;;;;;10054094;29;93477;-61
2023/04/05 08:22:21;;;;;;;;;;;16.10;54.20;;;;;;10053340;29;94547;-60
2023/04/05 08:27:22;;;;;;;;;;;16.10;54.10;;;;;;10053849;29;93690;-61
2023/04/05 08:32:24;;;;;;;;;;;16.10;54.10;;;;;;10031315;29;94666;-61
2023/04/05 08:37:26;;;;;;;;;;;16.10;54.30;;;;;;9999414;29;93956;-60
2023/04/05 08:42:32;;;;;;;;;;;16.10;54.20;;;;;;9995399;29;96114;-61
2023/04/05 08:47:35;;;;;;;;;;;16.10;54.20;;;;;;10013331;29;93537;-61
2023/04/05 08:52:37;;;;;;;;;;;16.20;54.60;;;;;;10014176;29;94127;-60
2023/04/05 08:57:41;;;;;;;;;;;16.30;54.30;;;;;;10014954;29;94934;-61
2023/04/05 09:02:44;;;;;;;;;;;16.50;54.20;;;;;;10014061;29;93411;-61
2023/04/05 09:07:46;;;;;;;;;;;16.80;53.90;;;;;;10014115;29;94214;-60
2023/04/05 09:12:49;;;;;;;;;;;17.00;53.50;;;;;;10013798;29;93545;-61
2023/04/05 09:17:53;;;;;;;;;;;17.20;53.20;;;;;;10015182;29;93710;-61
2023/04/05 09:22:56;;;;;;;;;;;17.40;52.90;;;;;;10013395;29;93822;-61
2023/04/05 09:27:58;;;;;;;;;;;17.60;52.70;;;;;;10013373;29;93630;-61
2023/04/05 09:33:00;;;;;;;;;;;17.70;52.40;;;;;;10010868;29;96387;-59
2023/04/05 09:38:04;;;;;;;;;;;17.80;52.20;;;;;;10012866;29;93486;-59
2023/04/05 09:43:06;;;;;;;;;;;17.80;52.20;;;;;;9996119;29;93344;-59
2023/04/05 09:48:08;;;;;;;;;;;17.80;52.20;;;;;;10012000;29;93631;-60
2023/04/05 09:53:14;;;;;;;;;;;17.80;52.00;;;;;;10012556;29;93459;-59
2023/04/05 09:58:20;;;;;;;;;;;17.90;52.10;;;;;;10011761;29;93463;-59
2023/04/05 10:03:24;;;;;;;;;;;17.90;52.00;;;;;;10012602;29;94514;-59
2023/04/05 10:08:26;;;;;;;;;;;18.00;52.20;;;;;;10012182;29;94001;-59
2023/04/05 10:13:28;;;;;;;;;;;18.00;52.10;;;;;;10011171;29;94328;-60
2023/04/05 10:18:37;;;;;;;;;;;18.10;52.00;;;;;;10011159;29;93264;-59
2023/04/05 10:23:43;;;;;;;;;;;18.10;52.00;;;;;;10009265;29;95940;-60
2023/04/05 10:28:48;;;;;;;;;;;18.10;51.90;;;;;;10011721;29;94217;-60
2023/04/05 10:33:59;;;;;;;;;;;18.10;51.80;;;;;;10012643;29;94312;-59
2023/04/05 10:39:09;;;;;;;;;;;18.20;51.90;;;;;;10010459;29;93602;-59
2023/04/05 10:44:11;;;;;;;;;;;18.20;51.70;;;;;;9993895;29;94450;-60
2023/04/05 10:49:35;;;;;;;;;;;18.30;51.70;;;;;;10010274;29;94064;-60
2023/04/05 10:54:37;;;;;;;;;;;18.20;51.70;;;;;;10009193;29;94557;-60
2023/04/05 10:59:40;;;;;;;;;;;18.20;51.70;;;;;;10011745;29;93620;-59
2023/04/05 11:04:42;;;;;;;;;;;18.30;51.90;;;;;;10010170;29;93720;-60
2023/04/05 11:10:00;;;;;;;;;;;18.20;51.80;;;;;;10011206;29;94729;-60
2023/04/05 11:15:21;;;;;;;;;;;18.20;52.00;;;;;;10006973;29;95928;-60
2023/04/05 11:20:22;;;;;;;;;;;18.20;52.50;;;;;;10009288;29;94484;-60
2023/04/05 11:25:24;;;;;;;;;;;18.20;52.50;;;;;;10009860;29;93349;-60
2023/04/05 11:30:55;;;;;;;;;;;18.10;52.50;;;;;;10009987;29;94591;-59
2023/04/05 11:36:03;;;;;;;;;;;18.10;52.50;;;;;;10007446;29;93634;-60
2023/04/05 11:41:05;;;;;;;;;;;18.10;52.70;;;;;;10009984;29;92955;-60
2023/04/05 11:46:06;;;;;;;;;;;18.00;52.80;;;;;;10009958;29;94606;-61
2023/04/05 11:51:09;;;;;;;;;;;18.00;53.00;;;;;;10009316;29;94014;-60
2023/04/05 11:56:14;;;;;;;;;;;18.00;53.00;;;;;;10009958;29;94450;-60
2023/04/05 12:01:16;;;;;;;;;;;18.00;53.10;;;;;;10009963;29;94684;-60
2023/04/05 12:06:24;;;;;;;;;;;17.90;53.10;;;;;;10007137;29;96072;-61
2023/04/05 12:11:26;;;;;;;;;;;17.90;53.30;;;;;;9991980;29;93540;-61
2023/04/05 12:16:28;;;;;;;;;;;17.90;53.30;;;;;;9992893;29;93455;-59
2023/04/05 12:21:31;;;;;;;;;;;17.90;53.20;;;;;;10008826;29;94906;-59
2023/04/05 12:26:36;;;;;;;;;;;17.80;53.30;;;;;;10008312;29;93636;-59
2023/04/05 12:31:41;;;;;;;;;;;17.80;53.50;;;;;;10014255;29;93493;-60
2023/04/05 12:36:43;;;;;;;;;;;17.80;53.50;;;;;;10015367;29;93976;-59
2023/04/05 12:41:54;;;;;;;;;;;17.80;53.60;;;;;;10016888;29;93716;-59
2023/04/05 12:47:04;;;;;;;;;;;17.80;53.60;;;;;;10014614;29;92882;-60
2023/04/05 12:52:05;;;;;;;;;;;17.80;53.70;;;;;;10014460;29;94207;-59
2023/04/05 12:57:11;;;;;;;;;;;17.70;53.70;;;;;;10011476;29;95869;-60
2023/04/05 13:02:13;;;;;;;;;;;17.80;53.90;;;;;;10012159;29;93873;-60
2023/04/05 13:07:15;;;;;;;;;;;17.80;53.90;;;;;;10014416;29;93658;-60
2023/04/05 13:12:16;;;;;;;;;;;17.80;53.90;;;;;;10013681;29;93457;-61
2023/04/05 13:17:18;;;;;;;;;;;17.80;54.00;;;;;;10012724;29;93483;-60
2023/04/05 13:22:20;;;;;;;;;;;17.80;54.10;;;;;;10013030;29;94412;-59
2023/04/05 13:27:22;;;;;;;;;;;17.80;54.10;;;;;;10012123;29;93612;-59
2023/04/05 13:32:23;;;;;;;;;;;17.80;54.10;;;;;;10012558;29;92815;-59
2023/04/05 13:37:25;;;;;;;;;;;17.80;54.10;;;;;;10013939;29;94652;-59
2023/04/05 13:42:27;;;;;;;;;;;17.80;54.00;;;;;;10012836;29;94577;-60
2023/04/05 13:47:28;;;;;;;;;;;17.80;54.10;;;;;;10009776;29;97141;-60
2023/04/05 13:52:30;;;;;;;;;;;17.80;54.10;;;;;;10012256;29;93716;-59
2023/04/05 13:57:32;;;;;;;;;;;17.80;54.20;;;;;;10012562;29;94096;-59
2023/04/05 14:02:34;;;;;;;;;;;17.80;54.20;;;;;;10012420;29;93345;-59
2023/04/05 14:07:36;;;;;;;;;;;17.80;54.30;;;;;;10012665;29;94526;-59
2023/04/05 14:12:38;;;;;;;;;;;17.70;54.40;;;;;;10012469;29;93740;-59
2023/04/05 14:17:39;;;;;;;;;;;17.70;54.70;;;;;;10011324;29;93576;-59
2023/04/05 14:22:41;;;;;;;;;;;17.70;54.90;;;;;;10012566;29;93755;-59
2023/04/05 14:27:43;;;;;;;;;;;17.70;55.00;;;;;;10011622;29;94487;-59
2023/04/05 14:32:45;;;;;;;;;;;17.70;55.00;;;;;;10010800;29;94131;-59
2023/04/05 14:37:47;;;;;;;;;;;17.70;55.00;;;;;;10008195;29;96076;-59
2023/04/05 14:42:49;;;;;;;;;;;17.70;55.10;;;;;;10011246;29;93144;-59
2023/04/05 14:47:51;;;;;;;;;;;17.60;55.10;;;;;;10010576;29;94735;-60
2023/04/05 14:52:53;;;;;;;;;;;17.70;55.10;;;;;;10009742;29;93445;-59
2023/04/05 14:57:55;;;;;;;;;;;17.60;55.10;;;;;;10011105;29;94198;-58
2023/04/05 15:02:57;;;;;;;;;;;17.70;55.20;;;;;;10010247;29;93370;-59
2023/04/05 15:07:58;;;;;;;;;;;17.70;55.20;;;;;;10008672;29;93483;-59
2023/04/05 15:13:00;;;;;;;;;;;17.60;55.20;;;;;;10011394;29;92703;-59
2023/04/05 15:18:02;;;;;;;;;;;17.60;55.30;;;;;;10008762;29;93388;-59
2023/04/05 15:23:04;;;;;;;;;;;17.70;55.40;;;;;;10010564;29;93524;-58
2023/04/05 15:28:06;;;;;;;;;;;17.70;55.50;;;;;;10007623;29;95867;-59
2023/04/05 15:33:07;;;;;;;;;;;17.70;55.50;;;;;;10011040;29;94464;-59
2023/04/05 15:38:09;;;;;;;;;;;17.70;55.60;;;;;;10010437;29;94632;-59
2023/04/05 15:43:11;;;;;;;;;;;17.70;55.70;;;;;;10009674;29;92958;-59
2023/04/05 15:48:12;;;;;;;;;;;17.80;55.70;;;;;;10009008;29;94227;-59
2023/04/05 15:53:14;;;;;;;;;;;17.80;55.70;;;;;;10008663;29;94470;-60
2023/04/05 15:58:16;;;;;;;;;;;17.90;55.80;;;;;;10010205;29;94474;-59
2023/04/05 16:03:17;;;;;;;;;;;18.00;55.80;;;;;;10009315;29;92770;-59
2023/04/05 16:08:19;;;;;;;;;;;18.00;55.80;;;;;;10013996;29;92609;-61
2023/04/05 16:13:21;;;;;;;;;;;18.00;55.80;;;;;;10015411;29;93089;-59
2023/04/05 16:18:24;;;;;;;;;;;18.10;56.00;;;;;;10009727;29;96298;-60
2023/04/05 16:23:26;;;;;;;;;;;18.10;56.40;;;;;;10054367;29;93769;-60
2023/04/05 16:28:28;;;;;;;;;;;18.20;56.40;;;;;;10052679;29;94235;-61
2023/04/05 16:33:30;;;;;;;;;;;18.30;57.90;;;;;;10050330;28;93902;-60
2023/04/05 16:38:31;;;;;;;;;;;18.30;58.90;;;;;;10051322;29;93526;-61
2023/04/05 16:43:33;;;;;;;;;;;18.30;60.00;;;;;;10050845;29;94138;-59
2023/04/05 16:48:35;;;;;;;;;;;18.30;57.80;;;;;;10052092;29;93531;-59
2023/04/05 16:53:36;;;;;;;;;;;18.50;57.70;;;;;;10053865;29;93765;-59
2023/04/05 16:58:38;;;;;;;;;;;18.70;56.80;;;;;;10053340;29;94101;-60
2023/04/05 17:03:40;;;;;;;;;;;18.80;57.10;;;;;;10052195;29;93252;-60
2023/04/05 17:08:42;;;;;;;;;;;18.80;57.20;;;;;;10051207;29;95805;-59
2023/04/05 17:13:45;;;;;;;;;;;18.80;57.60;;;;;;10052369;28;94146;-60
2023/04/05 17:18:47;;;;;;;;;;;18.80;58.10;;;;;;10020349;29;93643;-61
2023/04/05 17:23:49;;;;;;;;;;;18.70;58.30;;;;;;10012108;29;94348;-61
2023/04/05 17:28:50;;;;;;;;;;;18.60;58.50;;;;;;10012529;29;93800;-60
2023/04/05 17:33:52;;;;;;;;;;;18.50;58.70;;;;;;10013512;29;93341;-60
2023/04/05 17:38:54;;;;;;;;;;;18.40;58.90;;;;;;10011543;29;93506;-61
2023/04/05 17:43:56;;;;;;;;;;;18.30;59.00;;;;;;9982375;29;92470;-61
2023/04/05 17:48:58;;;;;;;;;;;18.30;59.10;;;;;;10012415;29;94548;-60
2023/04/05 17:54:00;;;;;;;;;;;18.20;59.10;;;;;;10012120;29;94846;-61
2023/04/05 17:59:02;;;;;;;;;;;18.20;59.40;;;;;;10008499;29;96094;-61
2023/04/05 18:04:04;;;;;;;;;;;18.20;59.50;;;;;;10012078;29;94507;-61
2023/04/05 18:09:07;;;;;;;;;;;18.20;59.20;;;;;;10011237;29;94455;-61
2023/04/05 18:14:09;;;;;;;;;;;18.10;59.00;;;;;;10012956;29;93881;-61
2023/04/05 18:19:10;;;;;;;;;;;18.10;58.80;;;;;;10012542;29;94463;-60
2023/04/05 18:24:12;;;;;;;;;;;18.10;58.50;;;;;;10012710;29;93990;-61
2023/04/05 18:29:14;;;;;;;;;;;18.00;58.30;;;;;;10011001;29;94819;-60
2023/04/05 18:34:16;;;;;;;;;;;18.00;58.20;;;;;;10012529;29;93610;-61
2023/04/05 18:39:18;;;;;;;;;;;18.00;58.40;;;;;;10011105;29;93377;-61
2023/04/05 18:44:20;;;;;;;;;;;18.00;58.40;;;;;;10011894;29;93805;-61
2023/04/05 18:49:22;;;;;;;;;;;18.00;58.30;;;;;;10007468;29;95854;-61
2023/04/05 18:54:24;;;;;;;;;;;18.00;58.40;;;;;;10011548;29;93489;-61
2023/04/05 18:59:28;;;;;;;;;;;18.00;58.30;;;;;;10011434;29;94139;-60
2023/04/05 19:04:30;;;;;;;;;;;18.00;58.20;;;;;;10010824;29;94564;-61
2023/04/05 19:09:31;;;;;;;;;;;18.00;58.30;;;;;;10010826;29;94573;-60
2023/04/05 19:14:33;;;;;;;;;;;18.00;58.20;;;;;;10009526;29;93667;-60
2023/04/05 19:19:35;;;;;;;;;;;18.00;58.10;;;;;;10010553;29;94759;-60
2023/04/05 19:24:38;;;;;;;;;;;18.00;58.10;;;;;;9993057;29;92718;-60
2023/04/05 19:29:40;;;;;;;;;;;18.00;58.10;;;;;;10010045;29;93489;-60
2023/04/05 19:34:41;;;;;;;;;;;18.00;58.20;;;;;;9993084;29;94511;-59
2023/04/05 19:39:44;;;;;;;;;;;18.00;58.10;;;;;;10011201;29;95311;-60
2023/04/05 19:44:58;;;;;;;;;;;18.00;58.00;;;;;;10014959;29;94071;-61
2023/04/05 19:50:00;;;;;;;;;;;18.00;58.00;;;;;;10015426;29;94518;-61
2023/04/05 19:55:20;;;;;;;;;;;18.00;58.10;;;;;;10016334;29;93283;-60
2023/04/05 20:00:30;;;;;;;;;;;18.00;58.20;;;;;;10015410;29;93482;-60
2023/04/05 20:05:43;;;;;;;;;;;18.00;58.30;;;;;;10016332;29;93820;-60
2023/04/05 20:10:48;;;;;;;;;;;17.90;58.30;;;;;;10015404;29;93139;-60
2023/04/05 20:15:49;;;;;;;;;;;17.90;58.30;;;;;;10016415;29;92706;-60
2023/04/05 20:20:55;;;;;;;;;;;17.90;58.30;;;;;;10014474;29;93828;-60
2023/04/05 20:25:57;;;;;;;;;;;17.90;58.30;;;;;;10013252;29;93733;-61
2023/04/05 20:30:59;;;;;;;;;;;17.80;58.20;;;;;;10011737;29;96278;-61
2023/04/05 20:36:08;;;;;;;;;;;17.80;58.20;;;;;;10014281;29;93758;-60
2023/04/05 20:41:10;;;;;;;;;;;17.80;58.30;;;;;;10013748;29;93647;-60
2023/04/05 20:46:13;;;;;;;;;;;17.80;58.20;;;;;;10014568;29;94246;-60
2023/04/05 20:51:15;;;;;;;;;;;17.80;58.20;;;;;;10012843;29;94508;-61
2023/04/05 20:56:17;;;;;;;;;;;17.80;58.20;;;;;;10013996;29;93443;-60
2023/04/05 21:01:18;;;;;;;;;;;17.70;57.90;;;;;;10015112;29;93539;-60
2023/04/05 21:06:20;;;;;;;;;;;17.70;57.80;;;;;;10016592;29;93355;-61
2023/04/05 21:11:22;;;;;;;;;;;17.70;57.80;;;;;;10014500;29;94627;-61
2023/04/05 21:16:24;;;;;;;;;;;17.70;57.70;;;;;;10013279;29;93578;-61
2023/04/05 21:21:26;;;;;;;;;;;17.60;57.50;;;;;;9994061;29;96420;-60
2023/04/05 21:26:28;;;;;;;;;;;17.60;57.40;;;;;;10014104;29;93596;-61
2023/04/05 21:31:30;;;;;;;;;;;17.60;57.40;;;;;;10013883;29;94662;-61
2023/04/05 21:36:32;;;;;;;;;;;17.60;57.40;;;;;;10012631;29;93485;-60
2023/04/05 21:41:34;;;;;;;;;;;17.60;57.30;;;;;;10013389;29;94455;-60
2023/04/05 21:46:35;;;;;;;;;;;17.50;57.20;;;;;;10012128;29;95027;-61
2023/04/05 21:51:37;;;;;;;;;;;17.50;57.10;;;;;;10012523;29;94634;-61
2023/04/05 21:56:39;;;;;;;;;;;17.50;57.10;;;;;;10013094;29;93775;-61
2023/04/05 22:01:41;;;;;;;;;;;17.50;57.10;;;;;;10011946;29;93138;-61
2023/04/05 22:06:42;;;;;;;;;;;17.40;57.00;;;;;;10011777;29;93500;-61
2023/04/05 22:11:44;;;;;;;;;;;17.40;57.00;;;;;;10009811;29;96353;-61
2023/04/05 22:16:46;;;;;;;;;;;17.40;57.00;;;;;;10013026;29;94639;-61
2023/04/05 22:21:48;;;;;;;;;;;17.40;57.00;;;;;;10011194;29;93591;-61
2023/04/05 22:26:55;;;;;;;;;;;17.40;56.80;;;;;;10011702;29;93744;-61
2023/04/05 22:31:56;;;;;;;;;;;17.30;56.80;;;;;;10010322;29;93683;-61
2023/04/05 22:36:59;;;;;;;;;;;17.30;56.80;;;;;;10011965;29;93565;-61
2023/04/05 22:42:01;;;;;;;;;;;17.30;56.70;;;;;;10011479;29;94834;-61
2023/04/05 22:47:02;;;;;;;;;;;17.30;56.60;;;;;;10012170;29;91910;-61
2023/04/05 22:52:04;;;;;;;;;;;17.30;56.60;;;;;;10010581;29;93575;-61
2023/04/05 22:57:06;;;;;;;;;;;17.30;56.60;;;;;;10010461;29;93478;-60
2023/04/05 23:02:12;;;;;;;;;;;17.30;56.60;;;;;;10009200;29;96109;-60
2023/04/05 23:07:13;;;;;;;;;;;17.20;56.50;;;;;;10011144;29;94308;-60
2023/04/05 23:12:15;;;;;;;;;;;17.20;56.40;;;;;;10009630;29;93409;-60
2023/04/05 23:17:17;;;;;;;;;;;17.20;56.40;;;;;;10010163;29;93685;-61
2023/04/05 23:22:18;;;;;;;;;;;17.20;56.30;;;;;;10010009;29;93556;-60
2023/04/05 23:27:21;;;;;;;;;;;17.20;56.30;;;;;;10009504;29;92870;-61
2023/04/05 23:32:23;;;;;;;;;;;17.20;56.30;;;;;;10010573;29;94538;-61
2023/04/05 23:37:25;;;;;;;;;;;17.20;56.30;;;;;;10010156;29;93495;-61
2023/04/05 23:42:26;;;;;;;;;;;17.20;56.20;;;;;;10008875;29;93517;-62
2023/04/05 23:47:28;;;;;;;;;;;17.20;56.10;;;;;;10010310;29;93374;-62
2023/04/05 23:52:30;;;;;;;;;;;17.20;56.00;;;;;;10006555;29;96045;-60
2023/04/05 23:57:32;;;;;;;;;;;17.20;55.90;;;;;;10010587;29;94774;-60
